createdAt,value
2023-07-06T00:00:24.857Z,1011.31
2023-07-06T00:01:24.948Z,1011.31
2023-07-06T00:02:24.890Z,1011.32
2023-07-06T00:03:25.364Z,1011.36
2023-07-06T00:04:24.842Z,1011.36
2023-07-06T00:05:24.810Z,1011.37
2023-07-06T00:06:24.802Z,1011.40
2023-07-06T00:07:24.833Z,1011.43
2023-07-06T00:08:24.774Z,1011.45
2023-07-06T00:09:25.268Z,1011.45
2023-07-06T00:10:24.768Z,1011.45
2023-07-06T00:11:24.763Z,1011.44
2023-07-06T00:12:24.772Z,1011.44
2023-07-06T00:13:24.778Z,1011.43
2023-07-06T00:14:24.704Z,1011.43
2023-07-06T00:15:24.731Z,1011.44
2023-07-06T00:16:24.759Z,1011.45
2023-07-06T00:17:24.734Z,1011.46
2023-07-06T00:18:24.669Z,1011.47
2023-07-06T00:19:24.668Z,1011.46
2023-07-06T00:20:24.653Z,1011.48
2023-07-06T00:21:24.634Z,1011.47
2023-07-06T00:22:24.690Z,1011.49
2023-07-06T00:23:24.637Z,1011.51
2023-07-06T00:24:24.615Z,1011.52
2023-07-06T00:25:24.584Z,1011.53
2023-07-06T00:26:24.586Z,1011.52
2023-07-06T00:27:24.582Z,1011.52
2023-07-06T00:28:24.559Z,1011.53
2023-07-06T00:29:24.548Z,1011.54
2023-07-06T00:30:24.548Z,1011.55
2023-07-06T00:31:24.586Z,1011.57
2023-07-06T00:32:24.545Z,1011.59
2023-07-06T00:33:24.507Z,1011.60
2023-07-06T00:34:24.537Z,1011.60
2023-07-06T00:35:24.482Z,1011.61
2023-07-06T00:36:25.059Z,1011.63
2023-07-06T00:37:24.468Z,1011.65
2023-07-06T00:38:24.474Z,1011.65
2023-07-06T00:39:24.434Z,1011.64
2023-07-06T00:40:24.440Z,1011.63
2023-07-06T00:41:24.456Z,1011.63
2023-07-06T00:42:24.456Z,1011.64
2023-07-06T00:43:24.403Z,1011.66
2023-07-06T00:44:24.390Z,1011.66
2023-07-06T00:45:24.384Z,1011.66
2023-07-06T00:46:25.029Z,1011.66
2023-07-06T00:47:24.391Z,1011.67
2023-07-06T00:48:24.357Z,1011.69
2023-07-06T00:49:24.358Z,1011.69
2023-07-06T00:50:24.346Z,1011.69
2023-07-06T00:51:24.853Z,1011.71
2023-07-06T00:52:24.306Z,1011.71
2023-07-06T00:53:24.293Z,1011.75
2023-07-06T00:54:24.300Z,1011.77
2023-07-06T00:55:24.268Z,1011.77
2023-07-06T00:56:24.525Z,1011.76
2023-07-06T00:57:24.261Z,1011.75
2023-07-06T00:58:24.266Z,1011.74
2023-07-06T00:59:24.265Z,1011.75
2023-07-06T01:00:24.236Z,1011.75
2023-07-06T01:01:24.337Z,1011.75
2023-07-06T01:02:24.252Z,1011.77
2023-07-06T01:03:24.259Z,1011.76
2023-07-06T01:04:24.181Z,1011.76
2023-07-06T01:05:24.207Z,1011.75
2023-07-06T01:06:24.177Z,1011.75
2023-07-06T01:07:24.188Z,1011.73
2023-07-06T01:08:24.155Z,1011.74
2023-07-06T01:09:24.148Z,1011.73
2023-07-06T01:10:24.169Z,1011.73
2023-07-06T01:11:24.139Z,1011.73
2023-07-06T01:12:24.134Z,1011.74
2023-07-06T01:13:24.099Z,1011.75
2023-07-06T01:14:24.099Z,1011.77
2023-07-06T01:15:24.068Z,1011.77
2023-07-06T01:16:24.097Z,1011.77
2023-07-06T01:17:24.098Z,1011.78
2023-07-06T01:18:24.630Z,1011.78
2023-07-06T01:19:24.043Z,1011.78
2023-07-06T01:20:24.027Z,1011.77
2023-07-06T01:21:23.987Z,1011.78
2023-07-06T01:22:24.081Z,1011.76
2023-07-06T01:23:23.974Z,1011.75
2023-07-06T01:24:23.971Z,1011.75
2023-07-06T01:25:25.430Z,1011.77
2023-07-06T01:26:23.949Z,1011.76
2023-07-06T01:27:23.919Z,1011.77
2023-07-06T01:28:23.927Z,1011.75
2023-07-06T01:29:23.959Z,1011.79
2023-07-06T01:30:23.954Z,1011.79
2023-07-06T01:31:23.932Z,1011.80
2023-07-06T01:32:23.915Z,1011.80
2023-07-06T01:33:23.863Z,1011.80
2023-07-06T01:34:23.867Z,1011.79
2023-07-06T01:35:23.863Z,1011.78
2023-07-06T01:36:23.841Z,1011.77
2023-07-06T01:37:23.865Z,1011.79
2023-07-06T01:38:23.862Z,1011.77
2023-07-06T01:39:23.827Z,1011.77
2023-07-06T01:40:23.840Z,1011.76
2023-07-06T01:41:24.296Z,1011.76
2023-07-06T01:42:23.776Z,1011.73
2023-07-06T01:43:23.756Z,1011.77
2023-07-06T01:44:23.785Z,1011.76
2023-07-06T01:45:23.776Z,1011.80
2023-07-06T01:46:23.805Z,1011.79
2023-07-06T01:47:23.740Z,1011.79
2023-07-06T01:48:23.714Z,1011.79
2023-07-06T01:49:23.703Z,1011.80
2023-07-06T01:50:23.737Z,1011.79
2023-07-06T01:51:23.692Z,1011.79
2023-07-06T01:52:23.677Z,1011.79
2023-07-06T01:53:23.679Z,1011.78
2023-07-06T01:54:23.655Z,1011.78
2023-07-06T01:55:23.660Z,1011.79
2023-07-06T01:56:24.631Z,1011.80
2023-07-06T01:57:23.625Z,1011.79
2023-07-06T01:58:23.611Z,1011.78
2023-07-06T01:59:23.600Z,1011.79
2023-07-06T02:00:23.588Z,1011.82
2023-07-06T02:01:23.755Z,1011.82
2023-07-06T02:02:23.639Z,1011.84
2023-07-06T02:03:25.374Z,1011.86
2023-07-06T02:04:23.566Z,1011.88
2023-07-06T02:05:24.045Z,1011.91
2023-07-06T02:06:23.556Z,1011.92
2023-07-06T02:07:23.676Z,1011.93
2023-07-06T02:08:24.059Z,1011.94
2023-07-06T02:09:23.483Z,1011.96
2023-07-06T02:10:23.833Z,1011.98
2023-07-06T02:11:23.460Z,1011.99
2023-07-06T02:12:23.493Z,1012.00
2023-07-06T02:13:23.421Z,1012.01
2023-07-06T02:14:23.380Z,1012.01
2023-07-06T02:15:23.906Z,1012.00
2023-07-06T02:16:23.396Z,1012.02
2023-07-06T02:17:23.944Z,1012.02
2023-07-06T02:18:23.589Z,1012.04
2023-07-06T02:19:23.329Z,1012.05
2023-07-06T02:20:23.333Z,1012.06
2023-07-06T02:21:23.379Z,1012.07
2023-07-06T02:22:23.292Z,1012.07
2023-07-06T02:23:23.290Z,1012.08
2023-07-06T02:24:23.339Z,1012.09
2023-07-06T02:25:23.283Z,1012.10
2023-07-06T02:26:23.256Z,1012.09
2023-07-06T02:27:23.246Z,1012.11
2023-07-06T02:28:23.231Z,1012.12
2023-07-06T02:29:23.230Z,1012.13
2023-07-06T02:30:24.247Z,1012.14
2023-07-06T02:31:24.477Z,1012.13
2023-07-06T02:32:23.918Z,1012.14
2023-07-06T02:33:23.693Z,1012.16
2023-07-06T02:34:23.175Z,1012.15
2023-07-06T02:35:23.144Z,1012.16
2023-07-06T02:36:23.676Z,1012.15
2023-07-06T02:37:23.180Z,1012.15
2023-07-06T02:38:23.135Z,1012.15
2023-07-06T02:39:23.119Z,1012.16
2023-07-06T02:40:23.101Z,1012.17
2023-07-06T02:41:23.303Z,1012.16
2023-07-06T02:42:23.076Z,1012.17
2023-07-06T02:43:23.907Z,1012.18
2023-07-06T02:44:23.108Z,1012.19
2023-07-06T02:45:23.039Z,1012.20
2023-07-06T02:46:23.567Z,1012.19
2023-07-06T02:47:23.380Z,1012.18
2023-07-06T02:48:23.070Z,1012.18
2023-07-06T02:49:22.995Z,1012.18
2023-07-06T02:50:23.498Z,1012.18
2023-07-06T02:51:22.974Z,1012.19
2023-07-06T02:52:23.007Z,1012.20
2023-07-06T02:53:22.961Z,1012.20
2023-07-06T02:54:23.074Z,1012.20
2023-07-06T02:55:24.408Z,1012.20
2023-07-06T02:56:22.962Z,1012.19
2023-07-06T02:57:22.929Z,1012.18
2023-07-06T02:58:22.945Z,1012.18
2023-07-06T02:59:22.899Z,1012.18
2023-07-06T03:00:22.904Z,1012.18
2023-07-06T03:01:23.950Z,1012.18
2023-07-06T03:02:23.483Z,1012.18
2023-07-06T03:03:22.874Z,1012.18
2023-07-06T03:04:22.848Z,1012.16
2023-07-06T03:05:22.846Z,1012.16
2023-07-06T03:06:22.823Z,1012.16
2023-07-06T03:07:24.388Z,1012.16
2023-07-06T03:08:22.867Z,1012.18
2023-07-06T03:09:22.796Z,1012.18
2023-07-06T03:10:22.777Z,1012.19
2023-07-06T03:11:22.777Z,1012.19
2023-07-06T03:12:22.769Z,1012.20
2023-07-06T03:13:22.803Z,1012.21
2023-07-06T03:14:22.774Z,1012.20
2023-07-06T03:15:23.648Z,1012.21
2023-07-06T03:16:23.435Z,1012.22
2023-07-06T03:17:22.775Z,1012.21
2023-07-06T03:18:22.707Z,1012.21
2023-07-06T03:19:22.891Z,1012.20
2023-07-06T03:20:22.674Z,1012.19
2023-07-06T03:21:22.682Z,1012.17
2023-07-06T03:22:22.685Z,1012.17
2023-07-06T03:23:22.650Z,1012.18
2023-07-06T03:24:22.671Z,1012.19
2023-07-06T03:25:22.629Z,1012.20
2023-07-06T03:26:23.470Z,1012.20
2023-07-06T03:27:22.646Z,1012.21
2023-07-06T03:28:22.607Z,1012.21
2023-07-06T03:29:22.618Z,1012.21
2023-07-06T03:30:22.579Z,1012.22
2023-07-06T03:31:22.611Z,1012.23
2023-07-06T03:32:22.586Z,1012.24
2023-07-06T03:33:22.548Z,1012.26
2023-07-06T03:34:22.559Z,1012.28
2023-07-06T03:35:24.389Z,1012.29
2023-07-06T03:36:24.882Z,1012.31
2023-07-06T03:37:23.492Z,1012.32
2023-07-06T03:38:22.528Z,1012.34
2023-07-06T03:39:23.272Z,1012.36
2023-07-06T03:40:22.502Z,1012.35
2023-07-06T03:41:22.456Z,1012.33
2023-07-06T03:42:22.453Z,1012.33
2023-07-06T03:43:22.451Z,1012.35
2023-07-06T03:44:22.455Z,1012.35
2023-07-06T03:45:22.407Z,1012.36
2023-07-06T03:46:22.851Z,1012.36
2023-07-06T03:47:22.680Z,1012.36
2023-07-06T03:48:23.050Z,1012.36
2023-07-06T03:49:22.362Z,1012.38
2023-07-06T03:50:22.368Z,1012.40
2023-07-06T03:51:22.361Z,1012.42
2023-07-06T03:52:22.339Z,1012.40
2023-07-06T03:53:22.363Z,1012.40
2023-07-06T03:54:22.325Z,1012.40
2023-07-06T03:55:22.445Z,1012.41
2023-07-06T03:56:22.293Z,1012.41
2023-07-06T03:57:22.288Z,1012.44
2023-07-06T03:58:22.299Z,1012.44
2023-07-06T03:59:22.294Z,1012.45
2023-07-06T04:00:22.293Z,1012.47
2023-07-06T04:01:22.299Z,1012.47
2023-07-06T04:02:22.361Z,1012.49
2023-07-06T04:03:22.291Z,1012.51
2023-07-06T04:04:22.381Z,1012.53
2023-07-06T04:05:22.206Z,1012.54
2023-07-06T04:06:22.982Z,1012.55
2023-07-06T04:07:22.204Z,1012.54
2023-07-06T04:08:22.179Z,1012.52
2023-07-06T04:09:23.011Z,1012.50
2023-07-06T04:10:22.147Z,1012.50
2023-07-06T04:11:22.312Z,1012.52
2023-07-06T04:12:22.164Z,1012.51
2023-07-06T04:13:22.185Z,1012.52
2023-07-06T04:14:22.116Z,1012.53
2023-07-06T04:15:22.110Z,1012.53
2023-07-06T04:16:22.160Z,1012.55
2023-07-06T04:17:22.155Z,1012.56
2023-07-06T04:18:22.065Z,1012.55
2023-07-06T04:19:22.958Z,1012.56
2023-07-06T04:20:22.060Z,1012.55
2023-07-06T04:21:22.060Z,1012.56
2023-07-06T04:22:22.033Z,1012.56
2023-07-06T04:23:22.949Z,1012.60
2023-07-06T04:24:22.021Z,1012.61
2023-07-06T04:25:21.997Z,1012.65
2023-07-06T04:26:22.014Z,1012.63
2023-07-06T04:27:21.971Z,1012.65
2023-07-06T04:28:21.999Z,1012.68
2023-07-06T04:29:21.929Z,1012.67
2023-07-06T04:30:21.942Z,1012.69
2023-07-06T04:31:21.970Z,1012.70
2023-07-06T04:32:21.924Z,1012.72
2023-07-06T04:33:21.908Z,1012.72
2023-07-06T04:34:21.905Z,1012.73
2023-07-06T04:35:21.911Z,1012.74
2023-07-06T04:36:22.389Z,1012.74
2023-07-06T04:37:22.510Z,1012.72
2023-07-06T04:38:21.879Z,1012.77
2023-07-06T04:39:21.848Z,1012.77
2023-07-06T04:40:21.829Z,1012.81
2023-07-06T04:41:21.825Z,1012.79
2023-07-06T04:42:21.804Z,1012.80
2023-07-06T04:43:21.833Z,1012.84
2023-07-06T04:44:21.789Z,1012.86
2023-07-06T04:45:21.828Z,1012.87
2023-07-06T04:46:21.790Z,1012.93
2023-07-06T04:47:21.763Z,1012.95
2023-07-06T04:48:22.873Z,1012.98
2023-07-06T04:49:21.735Z,1012.98
2023-07-06T04:50:21.727Z,1013.03
2023-07-06T04:51:21.742Z,1013.01
2023-07-06T04:52:21.906Z,1013.00
2023-07-06T04:53:21.732Z,1012.99
2023-07-06T04:54:21.680Z,1012.97
2023-07-06T04:55:21.676Z,1012.97
2023-07-06T04:56:21.659Z,1012.96
2023-07-06T04:57:21.681Z,1012.95
2023-07-06T04:58:21.698Z,1012.98
2023-07-06T04:59:21.670Z,1012.89
2023-07-06T05:00:21.622Z,1012.97
2023-07-06T05:01:21.713Z,1012.97
2023-07-06T05:02:21.637Z,1012.94
2023-07-06T05:03:21.729Z,1012.98
2023-07-06T05:04:21.774Z,1012.96
2023-07-06T05:05:21.571Z,1012.95
2023-07-06T05:06:22.447Z,1012.91
2023-07-06T05:07:21.554Z,1012.91
2023-07-06T05:08:21.545Z,1012.91
2023-07-06T05:09:23.916Z,1012.92
2023-07-06T05:10:21.502Z,1012.96
2023-07-06T05:11:21.549Z,1012.95
2023-07-06T05:12:21.478Z,1012.94
2023-07-06T05:13:21.574Z,1012.96
2023-07-06T05:14:21.461Z,1012.95
2023-07-06T05:15:21.482Z,1012.99
2023-07-06T05:16:21.506Z,1013.00
2023-07-06T05:17:21.558Z,1013.02
2023-07-06T05:18:21.808Z,1013.09
2023-07-06T05:19:21.477Z,1013.05
2023-07-06T05:20:21.403Z,1013.06
2023-07-06T05:21:21.395Z,1013.03
2023-07-06T05:22:21.405Z,1013.10
2023-07-06T05:23:21.423Z,1013.12
2023-07-06T05:24:21.368Z,1013.14
2023-07-06T05:25:21.352Z,1013.17
2023-07-06T05:26:21.368Z,1013.19
2023-07-06T05:27:21.329Z,1013.19
2023-07-06T05:28:21.314Z,1013.16
2023-07-06T05:29:21.312Z,1013.17
2023-07-06T05:30:22.396Z,1013.19
2023-07-06T05:31:21.416Z,1013.21
2023-07-06T05:32:21.379Z,1013.21
2023-07-06T05:33:21.286Z,1013.25
2023-07-06T05:34:21.257Z,1013.20
2023-07-06T05:35:21.245Z,1013.19
2023-07-06T05:36:21.252Z,1013.19
2023-07-06T05:37:34.717Z,1013.19
2023-07-06T05:38:21.230Z,1013.20
2023-07-06T05:39:21.205Z,1013.21
2023-07-06T05:40:21.209Z,1013.21
2023-07-06T05:41:21.202Z,1013.23
2023-07-06T05:42:21.181Z,1013.23
2023-07-06T05:43:21.214Z,1013.25
2023-07-06T05:44:21.186Z,1013.24
2023-07-06T05:45:21.184Z,1013.25
2023-07-06T05:46:21.156Z,1013.25
2023-07-06T05:47:21.199Z,1013.25
2023-07-06T05:48:21.151Z,1013.24
2023-07-06T05:49:21.105Z,1013.23
2023-07-06T05:50:21.111Z,1013.27
2023-07-06T05:51:21.087Z,1013.27
2023-07-06T05:52:21.056Z,1013.27
2023-07-06T05:53:21.045Z,1013.28
2023-07-06T05:54:21.036Z,1013.30
2023-07-06T05:55:21.056Z,1013.30
2023-07-06T05:56:21.010Z,1013.33
2023-07-06T05:57:21.006Z,1013.33
2023-07-06T05:58:20.988Z,1013.36
2023-07-06T05:59:21.002Z,1013.37
2023-07-06T06:00:21.043Z,1013.33
2023-07-06T06:01:21.017Z,1013.32
2023-07-06T06:02:20.986Z,1013.34
2023-07-06T06:03:20.973Z,1013.34
2023-07-06T06:04:21.119Z,1013.36
2023-07-06T06:05:20.968Z,1013.36
2023-07-06T06:06:20.899Z,1013.37
2023-07-06T06:07:20.969Z,1013.36
2023-07-06T06:08:20.922Z,1013.37
2023-07-06T06:09:20.885Z,1013.38
2023-07-06T06:10:20.932Z,1013.37
2023-07-06T06:11:20.869Z,1013.38
2023-07-06T06:12:20.848Z,1013.42
2023-07-06T06:13:21.839Z,1013.42
2023-07-06T06:14:20.815Z,1013.44
2023-07-06T06:15:20.861Z,1013.44
2023-07-06T06:16:20.803Z,1013.46
2023-07-06T06:17:20.914Z,1013.44
2023-07-06T06:18:20.808Z,1013.47
2023-07-06T06:19:20.920Z,1013.49
2023-07-06T06:20:20.806Z,1013.49
2023-07-06T06:21:20.775Z,1013.53
2023-07-06T06:22:20.733Z,1013.54
2023-07-06T06:23:20.753Z,1013.52
2023-07-06T06:24:20.808Z,1013.55
2023-07-06T06:25:20.745Z,1013.53
2023-07-06T06:26:20.722Z,1013.54
2023-07-06T06:27:20.730Z,1013.54
2023-07-06T06:28:20.679Z,1013.54
2023-07-06T06:29:20.718Z,1013.52
2023-07-06T06:30:20.641Z,1013.55
2023-07-06T06:31:20.669Z,1013.53
2023-07-06T06:32:20.717Z,1013.55
2023-07-06T06:33:20.667Z,1013.59
2023-07-06T06:34:20.604Z,1013.58
2023-07-06T06:35:20.603Z,1013.59
2023-07-06T06:36:20.630Z,1013.61
2023-07-06T06:37:20.624Z,1013.64
2023-07-06T06:38:20.569Z,1013.63
2023-07-06T06:39:20.555Z,1013.66
2023-07-06T06:40:20.568Z,1013.64
2023-07-06T06:41:20.540Z,1013.66
2023-07-06T06:42:20.544Z,1013.65
2023-07-06T06:43:20.557Z,1013.63
2023-07-06T06:44:20.516Z,1013.62
2023-07-06T06:45:20.502Z,1013.61
2023-07-06T06:46:20.579Z,1013.63
2023-07-06T06:47:20.554Z,1013.63
2023-07-06T06:48:20.459Z,1013.61
2023-07-06T06:49:20.454Z,1013.66
2023-07-06T06:50:20.446Z,1013.65
2023-07-06T06:51:20.465Z,1013.65
2023-07-06T06:52:20.420Z,1013.68
2023-07-06T06:53:20.471Z,1013.67
2023-07-06T06:54:20.400Z,1013.67
2023-07-06T06:55:22.628Z,1013.71
2023-07-06T06:56:20.409Z,1013.71
2023-07-06T06:57:20.379Z,1013.70
2023-07-06T06:58:20.379Z,1013.67
2023-07-06T06:59:20.459Z,1013.70
2023-07-06T07:00:20.343Z,1013.69
2023-07-06T07:01:20.407Z,1013.69
2023-07-06T07:02:20.369Z,1013.69
2023-07-06T07:03:20.363Z,1013.70
2023-07-06T07:04:20.401Z,1013.70
2023-07-06T07:05:20.299Z,1013.72
2023-07-06T07:06:20.304Z,1013.72
2023-07-06T07:07:20.277Z,1013.71
2023-07-06T07:08:20.245Z,1013.72
2023-07-06T07:09:20.269Z,1013.73
2023-07-06T07:10:20.236Z,1013.73
2023-07-06T07:11:23.651Z,1013.74
2023-07-06T07:12:20.221Z,1013.75
2023-07-06T07:13:20.226Z,1013.77
2023-07-06T07:14:20.218Z,1013.75
2023-07-06T07:15:21.003Z,1013.75
2023-07-06T07:16:20.198Z,1013.75
2023-07-06T07:17:20.175Z,1013.73
2023-07-06T07:18:20.140Z,1013.74
2023-07-06T07:19:20.136Z,1013.70
2023-07-06T07:20:20.135Z,1013.68
2023-07-06T07:21:20.115Z,1013.69
2023-07-06T07:22:20.099Z,1013.63
2023-07-06T07:23:20.136Z,1013.62
2023-07-06T07:24:20.143Z,1013.60
2023-07-06T07:25:20.140Z,1013.63
2023-07-06T07:26:20.058Z,1013.64
2023-07-06T07:27:20.070Z,1013.64
2023-07-06T07:28:20.059Z,1013.68
2023-07-06T07:29:20.072Z,1013.65
2023-07-06T07:30:20.079Z,1013.64
2023-07-06T07:31:20.092Z,1013.62
2023-07-06T07:32:20.045Z,1013.60
2023-07-06T07:33:19.992Z,1013.65
2023-07-06T07:34:20.259Z,1013.63
2023-07-06T07:35:19.986Z,1013.69
2023-07-06T07:36:20.001Z,1013.64
2023-07-06T07:37:19.952Z,1013.64
2023-07-06T07:38:19.932Z,1013.67
2023-07-06T07:39:19.935Z,1013.64
2023-07-06T07:40:19.942Z,1013.64
2023-07-06T07:41:20.708Z,1013.60
2023-07-06T07:42:19.882Z,1013.61
2023-07-06T07:43:19.894Z,1013.61
2023-07-06T07:44:19.860Z,1013.59
2023-07-06T07:45:20.030Z,1013.60
2023-07-06T07:46:19.906Z,1013.61
2023-07-06T07:47:20.632Z,1013.60
2023-07-06T07:48:22.671Z,1013.63
2023-07-06T07:49:19.899Z,1013.61
2023-07-06T07:50:19.819Z,1013.59
2023-07-06T07:51:19.845Z,1013.60
2023-07-06T07:52:19.938Z,1013.61
2023-07-06T07:53:19.829Z,1013.63
2023-07-06T07:54:19.893Z,1013.63
2023-07-06T07:55:19.792Z,1013.63
2023-07-06T07:56:20.565Z,1013.65
2023-07-06T07:57:19.765Z,1013.65
2023-07-06T07:58:19.769Z,1013.65
2023-07-06T07:59:19.781Z,1013.66
2023-07-06T08:00:19.795Z,1013.64
2023-07-06T08:01:19.794Z,1013.65
2023-07-06T08:02:19.762Z,1013.64
2023-07-06T08:03:19.723Z,1013.66
2023-07-06T08:04:19.801Z,1013.66
2023-07-06T08:05:19.653Z,1013.66
2023-07-06T08:06:19.710Z,1013.68
2023-07-06T08:07:19.733Z,1013.65
2023-07-06T08:08:19.646Z,1013.64
2023-07-06T08:09:19.653Z,1013.68
2023-07-06T08:10:19.635Z,1013.70
2023-07-06T08:11:19.694Z,1013.70
2023-07-06T08:12:19.631Z,1013.65
2023-07-06T08:13:19.653Z,1013.70
2023-07-06T08:14:19.690Z,1013.69
2023-07-06T08:15:19.624Z,1013.69
2023-07-06T08:16:19.602Z,1013.68
2023-07-06T08:17:19.638Z,1013.71
2023-07-06T08:18:19.573Z,1013.66
2023-07-06T08:19:42.515Z,1013.71
2023-07-06T08:20:59.181Z,1013.73
2023-07-06T08:22:00.684Z,1013.71
2023-07-06T08:22:19.551Z,1013.76
2023-07-06T08:23:19.491Z,1013.73
2023-07-06T08:24:19.489Z,1013.77
2023-07-06T08:25:19.465Z,1013.70
2023-07-06T08:26:19.465Z,1013.78
2023-07-06T08:27:21.919Z,1013.84
2023-07-06T08:28:19.426Z,1013.87
2023-07-06T08:29:19.510Z,1013.91
2023-07-06T08:30:19.463Z,1013.96
2023-07-06T08:31:21.166Z,1013.94
2023-07-06T08:32:19.404Z,1013.93
2023-07-06T08:33:19.375Z,1013.91
2023-07-06T08:34:19.385Z,1013.83
2023-07-06T08:35:19.385Z,1013.85
2023-07-06T08:36:19.352Z,1013.82
2023-07-06T08:37:19.351Z,1013.81
2023-07-06T08:38:19.336Z,1013.92
2023-07-06T08:39:19.334Z,1013.96
2023-07-06T08:40:19.485Z,1014.01
2023-07-06T08:41:19.309Z,1014.02
2023-07-06T08:42:19.305Z,1014.00
2023-07-06T08:43:19.286Z,1013.98
2023-07-06T08:44:20.897Z,1013.98
2023-07-06T08:45:19.275Z,1013.92
2023-07-06T08:46:19.275Z,1013.98
2023-07-06T08:47:19.268Z,1014.02
2023-07-06T08:48:19.253Z,1014.03
2023-07-06T08:49:19.223Z,1014.03
2023-07-06T08:50:19.228Z,1014.00
2023-07-06T08:51:19.202Z,1013.97
2023-07-06T08:52:19.200Z,1013.99
2023-07-06T08:53:19.204Z,1013.97
2023-07-06T08:54:19.190Z,1013.97
2023-07-06T08:55:19.192Z,1014.01
2023-07-06T08:56:19.173Z,1013.96
2023-07-06T08:57:19.161Z,1013.99
2023-07-06T08:58:19.123Z,1013.99
2023-07-06T08:59:19.134Z,1014.01
2023-07-06T09:00:19.114Z,1014.06
2023-07-06T09:01:20.635Z,1014.02
2023-07-06T09:02:19.224Z,1014.02
2023-07-06T09:03:19.159Z,1014.04
2023-07-06T09:04:19.072Z,1014.08
2023-07-06T09:05:19.048Z,1014.09
2023-07-06T09:06:19.055Z,1014.06
2023-07-06T09:07:19.285Z,1014.11
2023-07-06T09:08:19.043Z,1014.11
2023-07-06T09:09:19.045Z,1014.13
2023-07-06T09:10:26.567Z,1014.15
2023-07-06T09:11:22.187Z,1014.17
2023-07-06T09:12:19.022Z,1014.17
2023-07-06T09:13:18.989Z,1014.17
2023-07-06T09:14:18.995Z,1014.15
2023-07-06T09:15:18.969Z,1014.17
2023-07-06T09:16:18.959Z,1014.15
2023-07-06T09:17:18.978Z,1014.16
2023-07-06T09:18:18.933Z,1014.18
2023-07-06T09:19:19.010Z,1014.20
2023-07-06T09:20:19.501Z,1014.21
2023-07-06T09:21:18.891Z,1014.22
2023-07-06T09:22:18.913Z,1014.25
2023-07-06T09:23:18.871Z,1014.27
2023-07-06T09:24:18.888Z,1014.26
2023-07-06T09:25:18.861Z,1014.23
2023-07-06T09:26:32.732Z,1014.28
2023-07-06T09:27:18.906Z,1014.24
2023-07-06T09:28:18.854Z,1014.26
2023-07-06T09:29:18.804Z,1014.21
2023-07-06T09:30:18.857Z,1014.19
2023-07-06T09:31:18.804Z,1014.16
2023-07-06T09:32:18.781Z,1014.16
2023-07-06T09:33:18.807Z,1014.14
2023-07-06T09:34:18.811Z,1014.13
2023-07-06T09:35:18.745Z,1014.09
2023-07-06T09:36:18.735Z,1014.08
2023-07-06T09:37:18.752Z,1014.10
2023-07-06T09:38:18.766Z,1014.12
2023-07-06T09:39:18.739Z,1014.14
2023-07-06T09:40:18.739Z,1014.17
2023-07-06T09:41:18.709Z,1014.18
2023-07-06T09:42:18.728Z,1014.20
2023-07-06T09:43:18.667Z,1014.22
2023-07-06T09:44:18.706Z,1014.19
2023-07-06T09:45:18.676Z,1014.18
2023-07-06T09:46:18.691Z,1014.13
2023-07-06T09:47:18.677Z,1014.15
2023-07-06T09:48:18.628Z,1014.14
2023-07-06T09:49:18.620Z,1014.14
2023-07-06T09:50:18.638Z,1014.13
2023-07-06T09:51:18.619Z,1014.11
2023-07-06T09:52:18.589Z,1014.09
2023-07-06T09:53:18.592Z,1014.11
2023-07-06T09:54:18.641Z,1014.09
2023-07-06T09:55:18.601Z,1014.10
2023-07-06T09:56:18.616Z,1014.13
2023-07-06T09:57:18.525Z,1014.14
2023-07-06T09:58:18.525Z,1014.12
2023-07-06T09:59:18.493Z,1014.12
2023-07-06T10:00:18.505Z,1014.16
2023-07-06T10:01:18.540Z,1014.20
2023-07-06T10:02:18.533Z,1014.18
2023-07-06T10:03:18.560Z,1014.18
2023-07-06T10:04:18.463Z,1014.20
2023-07-06T10:05:18.474Z,1014.18
2023-07-06T10:06:18.479Z,1014.20
2023-07-06T10:07:18.414Z,1014.21
2023-07-06T10:08:18.465Z,1014.24
2023-07-06T10:09:18.528Z,1014.26
2023-07-06T10:10:19.031Z,1014.24
2023-07-06T10:11:18.378Z,1014.26
2023-07-06T10:12:18.399Z,1014.26
2023-07-06T10:13:18.404Z,1014.26
2023-07-06T10:14:18.362Z,1014.26
2023-07-06T10:15:18.348Z,1014.26
2023-07-06T10:16:18.326Z,1014.26
2023-07-06T10:17:18.362Z,1014.26
2023-07-06T10:18:18.340Z,1014.25
2023-07-06T10:19:18.314Z,1014.25
2023-07-06T10:20:18.309Z,1014.26
2023-07-06T10:21:18.353Z,1014.25
2023-07-06T10:22:18.311Z,1014.25
2023-07-06T10:23:18.249Z,1014.22
2023-07-06T10:24:18.243Z,1014.22
2023-07-06T10:25:18.232Z,1014.21
2023-07-06T10:26:18.242Z,1014.20
2023-07-06T10:27:18.287Z,1014.19
2023-07-06T10:28:18.359Z,1014.18
2023-07-06T10:29:18.298Z,1014.16
2023-07-06T10:30:18.207Z,1014.19
2023-07-06T10:31:18.243Z,1014.19
2023-07-06T10:32:18.190Z,1014.19
2023-07-06T10:33:18.231Z,1014.16
2023-07-06T10:34:18.155Z,1014.13
2023-07-06T10:35:18.122Z,1014.13
2023-07-06T10:36:18.125Z,1014.08
2023-07-06T10:37:19.072Z,1014.13
2023-07-06T10:38:18.608Z,1014.23
2023-07-06T10:39:18.120Z,1014.16
2023-07-06T10:40:18.141Z,1014.18
2023-07-06T10:41:18.106Z,1014.14
2023-07-06T10:42:18.078Z,1014.16
2023-07-06T10:43:18.052Z,1014.13
2023-07-06T10:44:18.060Z,1014.12
2023-07-06T10:45:18.016Z,1014.09
2023-07-06T10:47:18.001Z,1014.15
2023-07-06T10:48:18.073Z,1014.14
2023-07-06T10:49:17.985Z,1014.20
2023-07-06T10:50:18.030Z,1014.20
2023-07-06T10:51:18.031Z,1014.14
2023-07-06T10:52:18.010Z,1014.17
2023-07-06T10:53:18.033Z,1014.24
2023-07-06T10:54:18.175Z,1014.27
2023-07-06T10:55:17.927Z,1014.26
2023-07-06T10:56:17.953Z,1014.28
2023-07-06T10:57:17.897Z,1014.32
2023-07-06T10:58:17.956Z,1014.30
2023-07-06T10:59:17.923Z,1014.32
2023-07-06T11:00:17.959Z,1014.33
2023-07-06T11:01:17.914Z,1014.44
2023-07-06T11:02:17.873Z,1014.32
2023-07-06T11:03:17.934Z,1014.36
2023-07-06T11:04:17.862Z,1014.40
2023-07-06T11:05:17.857Z,1014.42
2023-07-06T11:06:17.833Z,1014.41
2023-07-06T11:07:17.849Z,1014.42
2023-07-06T11:08:17.828Z,1014.43
2023-07-06T11:09:17.829Z,1014.45
2023-07-06T11:10:17.878Z,1014.47
2023-07-06T11:11:17.748Z,1014.46
2023-07-06T11:12:17.783Z,1014.46
2023-07-06T11:13:17.875Z,1014.45
2023-07-06T11:14:17.738Z,1014.43
2023-07-06T11:15:17.753Z,1014.44
2023-07-06T11:16:17.761Z,1014.45
2023-07-06T11:17:17.702Z,1014.45
2023-07-06T11:18:17.726Z,1014.47
2023-07-06T11:19:17.703Z,1014.49
2023-07-06T11:20:17.687Z,1014.47
2023-07-06T11:21:17.669Z,1014.50
2023-07-06T11:22:17.646Z,1014.44
2023-07-06T11:23:17.641Z,1014.45
2023-07-06T11:24:17.681Z,1014.44
2023-07-06T11:25:17.754Z,1014.51
2023-07-06T11:26:18.191Z,1014.52
2023-07-06T11:27:17.616Z,1014.55
2023-07-06T11:28:19.522Z,1014.59
2023-07-06T11:29:17.590Z,1014.62
2023-07-06T11:30:17.573Z,1014.60
2023-07-06T11:31:17.594Z,1014.60
2023-07-06T11:32:17.569Z,1014.63
2023-07-06T11:33:17.560Z,1014.66
2023-07-06T11:34:17.532Z,1014.67
2023-07-06T11:35:17.512Z,1014.68
2023-07-06T11:36:17.613Z,1014.65
2023-07-06T11:37:17.483Z,1014.68
2023-07-06T11:38:17.522Z,1014.67
2023-07-06T11:39:17.464Z,1014.67
2023-07-06T11:40:17.450Z,1014.68
2023-07-06T11:41:17.458Z,1014.69
2023-07-06T11:42:17.438Z,1014.72
2023-07-06T11:43:17.442Z,1014.71
2023-07-06T11:44:17.459Z,1014.71
2023-07-06T11:45:17.434Z,1014.74
2023-07-06T11:46:17.401Z,1014.67
2023-07-06T11:47:17.587Z,1014.63
2023-07-06T11:48:17.441Z,1014.62
2023-07-06T11:49:17.443Z,1014.58
2023-07-06T11:50:17.359Z,1014.60
2023-07-06T11:51:17.329Z,1014.55
2023-07-06T11:52:17.353Z,1014.57
2023-07-06T11:53:17.314Z,1014.55
2023-07-06T11:54:17.358Z,1014.56
2023-07-06T11:55:17.289Z,1014.61
2023-07-06T11:56:17.295Z,1014.62
2023-07-06T11:57:17.282Z,1014.59
2023-07-06T11:58:17.288Z,1014.62
2023-07-06T11:59:17.270Z,1014.61
2023-07-06T12:00:17.275Z,1014.60
2023-07-06T12:01:17.296Z,1014.59
2023-07-06T12:02:17.263Z,1014.59
2023-07-06T12:03:17.254Z,1014.61
2023-07-06T12:04:17.219Z,1014.60
2023-07-06T12:05:17.284Z,1014.58
2023-07-06T12:06:17.223Z,1014.61